Time;durP1;ratioP1;P1;durP2;ratioP2;P2;SDS_P1;SDS_P2;PMS_P1;PMS_P2;Temp;Humidity;BMP_temperature;BMP_pressure;BME280_temperature;BME280_humidity;BME280_pressure;Samples;Min_cycle;Max_cycle;Signal;HPM_P1;HPM_P2
2022/06/10 00:01:29;;;;;;;;;;;22.00;56.00;;;;;;484803;246;1269;-41
2022/06/10 00:03:30;;;;;;;;;;;22.00;55.90;;;;;;484463;246;2136;-41
2022/06/10 00:05:31;;;;;;;;;;;22.00;55.90;;;;;;484684;245;1209;-41
2022/06/10 00:07:34;;;;;;;;;;;22.00;55.90;;;;;;484399;245;1201;-41
2022/06/10 00:09:34;;;;;;;;;;;22.00;55.90;;;;;;484691;245;2379;-41
2022/06/10 00:11:35;;;;;;;;;;;21.90;56.00;;;;;;484269;246;1236;-41
2022/06/10 00:13:37;;;;;;;;;;;21.90;56.00;;;;;;484591;246;1266;-41
2022/06/10 00:15:38;;;;;;;;;;;21.90;55.90;;;;;;484494;246;1172;-41
2022/06/10 00:17:39;;;;;;;;;;;21.90;56.10;;;;;;484390;246;1238;-40
2022/06/10 00:19:40;;;;;;;;;;;21.90;56.10;;;;;;484827;246;1117;-41
2022/06/10 00:21:42;;;;;;;;;;;21.90;56.00;;;;;;484464;246;2200;-41
2022/06/10 00:23:43;;;;;;;;;;;21.90;55.90;;;;;;484328;246;1639;-41
2022/06/10 00:25:45;;;;;;;;;;;21.90;56.00;;;;;;484414;246;1465;-41
2022/06/10 00:27:46;;;;;;;;;;;21.90;56.00;;;;;;484669;246;1230;-41
2022/06/10 00:29:48;;;;;;;;;;;21.90;56.00;;;;;;484356;246;1313;-41
2022/06/10 00:31:49;;;;;;;;;;;21.90;56.00;;;;;;484643;246;1189;-41
2022/06/10 00:33:50;;;;;;;;;;;21.90;56.00;;;;;;484392;246;1292;-41
2022/06/10 00:35:52;;;;;;;;;;;21.90;55.90;;;;;;484574;246;1293;-41
2022/06/10 00:37:53;;;;;;;;;;;21.90;56.10;;;;;;484800;246;1195;-41
2022/06/10 00:39:54;;;;;;;;;;;21.90;56.00;;;;;;484268;246;1213;-41
2022/06/10 00:41:56;;;;;;;;;;;21.90;56.10;;;;;;484331;246;2188;-41
2022/06/10 00:43:57;;;;;;;;;;;21.90;56.00;;;;;;484613;246;1270;-41
2022/06/10 00:45:58;;;;;;;;;;;21.90;55.90;;;;;;484385;246;1351;-41
2022/06/10 00:48:00;;;;;;;;;;;21.90;56.00;;;;;;484337;246;1124;-41
2022/06/10 00:50:01;;;;;;;;;;;21.90;56.00;;;;;;484460;245;1277;-41
2022/06/10 00:52:03;;;;;;;;;;;21.90;55.90;;;;;;484420;245;1230;-41
2022/06/10 00:54:04;;;;;;;;;;;21.90;55.90;;;;;;484640;245;1301;-41
2022/06/10 00:56:05;;;;;;;;;;;21.90;55.90;;;;;;484418;246;1252;-41
2022/06/10 00:58:07;;;;;;;;;;;21.90;55.90;;;;;;484411;246;1295;-40
2022/06/10 01:00:08;;;;;;;;;;;21.90;55.90;;;;;;484407;246;1141;-41
2022/06/10 01:02:10;;;;;;;;;;;22.00;55.90;;;;;;484584;246;2212;-40
2022/06/10 01:04:11;;;;;;;;;;;21.90;55.90;;;;;;484566;246;1197;-41
2022/06/10 01:06:12;;;;;;;;;;;21.90;56.00;;;;;;484561;246;1225;-41
2022/06/10 01:08:14;;;;;;;;;;;21.90;56.00;;;;;;484793;246;1256;-41
2022/06/10 01:10:15;;;;;;;;;;;21.90;55.90;;;;;;484832;245;1199;-41
2022/06/10 01:12:16;;;;;;;;;;;22.00;55.90;;;;;;484799;246;1338;-41
2022/06/10 01:14:17;;;;;;;;;;;21.90;55.90;;;;;;484534;245;1163;-41
2022/06/10 01:16:19;;;;;;;;;;;21.90;56.00;;;;;;484433;246;1232;-40
2022/06/10 01:18:20;;;;;;;;;;;21.90;56.00;;;;;;484843;246;1386;-40
2022/06/10 01:20:23;;;;;;;;;;;21.90;56.00;;;;;;484324;246;1295;-41
2022/06/10 01:22:23;;;;;;;;;;;21.90;56.00;;;;;;484186;246;2254;-41
2022/06/10 01:24:24;;;;;;;;;;;21.90;55.90;;;;;;484719;245;1352;-40
2022/06/10 01:26:25;;;;;;;;;;;21.90;56.10;;;;;;484526;246;1210;-41
2022/06/10 01:28:27;;;;;;;;;;;21.80;56.10;;;;;;484628;246;1284;-41
2022/06/10 01:30:28;;;;;;;;;;;21.90;56.00;;;;;;484376;245;1511;-41
2022/06/10 01:32:29;;;;;;;;;;;21.80;56.00;;;;;;484504;245;1215;-41
2022/06/10 01:34:31;;;;;;;;;;;21.90;56.10;;;;;;484388;246;1246;-41
2022/06/10 01:36:32;;;;;;;;;;;21.90;56.00;;;;;;484692;246;1289;-41
2022/06/10 01:38:33;;;;;;;;;;;21.90;56.00;;;;;;484685;245;1143;-41
2022/06/10 01:40:35;;;;;;;;;;;21.90;56.00;;;;;;484799;246;1058;-41
2022/06/10 01:42:36;;;;;;;;;;;21.90;56.00;;;;;;484514;246;2187;-41
2022/06/10 01:44:38;;;;;;;;;;;21.90;56.00;;;;;;484372;246;1270;-40
2022/06/10 01:46:39;;;;;;;;;;;21.90;56.00;;;;;;484801;245;1281;-41
2022/06/10 01:48:40;;;;;;;;;;;21.80;56.00;;;;;;484823;246;1304;-40
2022/06/10 01:50:42;;;;;;;;;;;21.90;55.90;;;;;;484803;246;1166;-41
2022/06/10 01:52:43;;;;;;;;;;;21.80;56.00;;;;;;484379;246;1580;-41
2022/06/10 01:54:44;;;;;;;;;;;21.90;56.00;;;;;;484841;246;1332;-41
2022/06/10 01:56:46;;;;;;;;;;;22.00;55.80;;;;;;484880;245;1218;-41
2022/06/10 01:58:47;;;;;;;;;;;22.00;55.90;;;;;;484474;245;1296;-41
2022/06/10 02:00:48;;;;;;;;;;;21.90;55.90;;;;;;484437;246;1239;-41
2022/06/10 02:02:50;;;;;;;;;;;21.90;55.90;;;;;;484567;245;2133;-41
2022/06/10 02:04:51;;;;;;;;;;;21.90;56.00;;;;;;484556;246;1299;-41
2022/06/10 02:06:52;;;;;;;;;;;21.90;56.00;;;;;;484462;245;1250;-40
2022/06/10 02:08:54;;;;;;;;;;;21.90;55.90;;;;;;484857;246;1274;-41
2022/06/10 02:10:55;;;;;;;;;;;21.90;55.90;;;;;;484818;245;1208;-41
2022/06/10 02:12:56;;;;;;;;;;;21.90;56.00;;;;;;484673;246;1242;-41
2022/06/10 02:14:58;;;;;;;;;;;21.90;56.00;;;;;;484450;245;1326;-41
2022/06/10 02:16:59;;;;;;;;;;;21.90;55.90;;;;;;484694;246;1261;-40
2022/06/10 02:19:00;;;;;;;;;;;21.90;55.90;;;;;;484730;246;1327;-40
2022/06/10 02:21:02;;;;;;;;;;;21.90;55.90;;;;;;484822;246;1253;-41
2022/06/10 02:23:03;;;;;;;;;;;21.90;55.90;;;;;;484859;246;2195;-41
2022/06/10 02:25:04;;;;;;;;;;;21.90;55.90;;;;;;484421;246;1147;-40
2022/06/10 02:27:06;;;;;;;;;;;21.90;55.90;;;;;;484402;246;1277;-41
2022/06/10 02:29:07;;;;;;;;;;;21.90;55.90;;;;;;484456;246;1246;-41
2022/06/10 02:31:09;;;;;;;;;;;21.90;55.90;;;;;;484423;245;1213;-40
2022/06/10 02:33:10;;;;;;;;;;;21.90;55.90;;;;;;484686;246;1256;-41
2022/06/10 02:35:11;;;;;;;;;;;21.90;55.90;;;;;;484841;245;1231;-41
2022/06/10 02:37:13;;;;;;;;;;;21.90;56.00;;;;;;484338;246;1620;-41
2022/06/10 02:39:14;;;;;;;;;;;21.90;55.90;;;;;;484620;246;1202;-41
2022/06/10 02:41:15;;;;;;;;;;;22.00;55.90;;;;;;484567;246;1217;-41
2022/06/10 02:43:17;;;;;;;;;;;22.00;55.90;;;;;;484614;246;2187;-40
2022/06/10 02:45:18;;;;;;;;;;;22.00;55.90;;;;;;484678;246;1266;-41
2022/06/10 02:47:19;;;;;;;;;;;22.00;55.90;;;;;;484481;245;1586;-41
2022/06/10 02:49:21;;;;;;;;;;;22.00;56.00;;;;;;484605;245;1228;-41
2022/06/10 02:51:23;;;;;;;;;;;22.00;55.90;;;;;;484452;246;1164;-41
2022/06/10 02:53:23;;;;;;;;;;;22.00;55.90;;;;;;484480;245;1849;-41
2022/06/10 02:55:25;;;;;;;;;;;21.90;55.90;;;;;;484874;246;1159;-41
2022/06/10 03:01:11;;;;;;;;;;;21.90;56.00;;;;;;484849;245;1671;-40
2022/06/10 03:01:48;;;;;;;;;;;21.90;56.00;;;;;;484405;244;1373;-41
2022/06/10 03:03:50;;;;;;;;;;;21.90;56.10;;;;;;484909;246;2204;-41
2022/06/10 03:05:51;;;;;;;;;;;21.90;56.00;;;;;;484527;246;1251;-40
2022/06/10 03:07:53;;;;;;;;;;;21.90;55.90;;;;;;485006;245;1264;-41
2022/06/10 03:09:57;;;;;;;;;;;22.00;55.90;;;;;;484361;246;1518;-41
2022/06/10 03:11:56;;;;;;;;;;;21.90;55.90;;;;;;484549;246;2072;-41
2022/06/10 03:13:57;;;;;;;;;;;22.00;55.90;;;;;;484651;246;1105;-41
2022/06/10 03:15:58;;;;;;;;;;;22.00;55.90;;;;;;484663;246;1186;-41
2022/06/10 03:18:00;;;;;;;;;;;22.00;55.90;;;;;;484687;246;1230;-40
2022/06/10 03:20:01;;;;;;;;;;;22.00;55.90;;;;;;484813;246;1247;-40
2022/06/10 03:22:02;;;;;;;;;;;21.90;56.00;;;;;;484818;246;1306;-41
2022/06/10 03:24:03;;;;;;;;;;;21.90;56.10;;;;;;484411;245;2199;-41
2022/06/10 03:26:05;;;;;;;;;;;21.90;56.00;;;;;;484699;245;1293;-40
2022/06/10 03:28:06;;;;;;;;;;;22.00;55.90;;;;;;484753;246;1102;-40
2022/06/10 03:30:07;;;;;;;;;;;21.90;56.00;;;;;;484679;246;1233;-41
2022/06/10 03:32:09;;;;;;;;;;;21.90;56.00;;;;;;484349;246;1193;-41
2022/06/10 03:34:10;;;;;;;;;;;21.90;55.90;;;;;;484750;246;1100;-41
2022/06/10 03:36:11;;;;;;;;;;;22.00;55.90;;;;;;484859;246;1126;-40
2022/06/10 03:38:13;;;;;;;;;;;21.90;56.00;;;;;;484522;245;1246;-40
2022/06/10 03:40:14;;;;;;;;;;;21.90;56.00;;;;;;484430;246;1193;-41
2022/06/10 03:42:15;;;;;;;;;;;21.90;55.90;;;;;;484415;246;1242;-41
2022/06/10 03:44:17;;;;;;;;;;;21.90;55.90;;;;;;484370;246;2121;-41
2022/06/10 03:46:18;;;;;;;;;;;21.90;56.00;;;;;;484535;246;1221;-41
2022/06/10 03:48:19;;;;;;;;;;;21.90;56.00;;;;;;484491;246;1140;-41
2022/06/10 03:50:21;;;;;;;;;;;21.90;56.00;;;;;;484380;246;1299;-41
2022/06/10 03:52:22;;;;;;;;;;;21.90;56.00;;;;;;484805;246;1203;-41
2022/06/10 03:54:23;;;;;;;;;;;21.90;56.00;;;;;;484868;246;1125;-41
2022/06/10 03:56:25;;;;;;;;;;;21.90;56.10;;;;;;484595;246;1312;-41
2022/06/10 03:58:26;;;;;;;;;;;21.90;56.00;;;;;;484362;246;1193;-41
2022/06/10 04:00:27;;;;;;;;;;;21.90;56.00;;;;;;484410;245;1200;-41
2022/06/10 04:02:29;;;;;;;;;;;22.00;56.00;;;;;;484331;245;1175;-41
2022/06/10 04:04:30;;;;;;;;;;;22.00;56.00;;;;;;484680;245;2113;-41
2022/06/10 04:06:31;;;;;;;;;;;22.00;55.90;;;;;;484428;246;1269;-41
2022/06/10 04:08:33;;;;;;;;;;;22.00;55.90;;;;;;484484;246;1228;-40
2022/06/10 04:10:34;;;;;;;;;;;21.90;55.90;;;;;;484414;246;1403;-41
2022/06/10 04:12:36;;;;;;;;;;;22.00;55.90;;;;;;484752;246;1318;-41
2022/06/10 04:14:37;;;;;;;;;;;21.90;56.00;;;;;;484437;246;1175;-41
2022/06/10 04:16:38;;;;;;;;;;;21.90;56.00;;;;;;484564;246;1227;-41
2022/06/10 04:18:39;;;;;;;;;;;21.90;56.10;;;;;;484275;246;1201;-41
2022/06/10 04:20:41;;;;;;;;;;;21.90;56.10;;;;;;484483;246;1299;-40
2022/06/10 04:22:42;;;;;;;;;;;21.90;56.10;;;;;;484396;246;1259;-41
2022/06/10 04:24:43;;;;;;;;;;;21.90;56.10;;;;;;484543;246;2198;-41
2022/06/10 04:26:45;;;;;;;;;;;21.90;56.00;;;;;;484227;246;1217;-41
2022/06/10 04:28:47;;;;;;;;;;;21.90;56.10;;;;;;484216;246;1310;-41
2022/06/10 04:30:47;;;;;;;;;;;21.90;56.00;;;;;;484685;245;1368;-41
2022/06/10 04:32:49;;;;;;;;;;;21.90;55.90;;;;;;484312;245;1219;-41
2022/06/10 04:34:50;;;;;;;;;;;21.90;56.00;;;;;;484373;245;1309;-40
2022/06/10 04:36:51;;;;;;;;;;;21.90;55.90;;;;;;484221;246;1132;-41
2022/06/10 04:38:53;;;;;;;;;;;22.00;56.00;;;;;;484461;245;1084;-40
2022/06/10 04:40:54;;;;;;;;;;;21.90;55.90;;;;;;484294;246;1072;-41
2022/06/10 04:42:55;;;;;;;;;;;21.90;55.90;;;;;;484611;246;1048;-41
2022/06/10 04:44:57;;;;;;;;;;;21.90;55.90;;;;;;484649;246;2121;-41
2022/06/10 04:46:58;;;;;;;;;;;21.90;55.90;;;;;;484574;245;2154;-40
2022/06/10 04:49:00;;;;;;;;;;;21.90;56.00;;;;;;484327;245;1087;-41
2022/06/10 04:51:01;;;;;;;;;;;22.00;55.90;;;;;;484555;246;1118;-41
2022/06/10 04:53:02;;;;;;;;;;;22.00;55.90;;;;;;484574;246;1080;-40
2022/06/10 04:55:04;;;;;;;;;;;21.90;55.90;;;;;;484342;246;1080;-41
2022/06/10 04:57:05;;;;;;;;;;;21.90;55.90;;;;;;484553;246;1136;-40
2022/06/10 04:59:06;;;;;;;;;;;21.90;55.90;;;;;;484462;246;1098;-41
2022/06/10 05:01:08;;;;;;;;;;;21.90;56.00;;;;;;484256;246;1068;-41
2022/06/10 05:03:09;;;;;;;;;;;21.90;56.00;;;;;;484191;246;1213;-41
2022/06/10 05:05:11;;;;;;;;;;;21.90;56.00;;;;;;484210;246;2179;-41
2022/06/10 05:07:12;;;;;;;;;;;21.90;55.90;;;;;;484198;246;1086;-40
2022/06/10 05:09:13;;;;;;;;;;;21.90;56.00;;;;;;484437;246;1154;-40
2022/06/10 05:11:15;;;;;;;;;;;21.90;55.90;;;;;;484257;246;1267;-41
2022/06/10 05:13:17;;;;;;;;;;;21.90;55.90;;;;;;484054;246;1076;-41
2022/06/10 05:15:19;;;;;;;;;;;21.90;55.90;;;;;;484457;246;1338;-40
2022/06/10 05:17:20;;;;;;;;;;;21.90;55.90;;;;;;484188;246;1772;-41
2022/06/10 05:19:21;;;;;;;;;;;21.90;55.90;;;;;;484196;246;1478;-41
2022/06/10 05:21:22;;;;;;;;;;;21.90;56.00;;;;;;484242;246;1281;-41
2022/06/10 05:23:24;;;;;;;;;;;21.90;55.90;;;;;;484358;246;1274;-41
2022/06/10 05:25:25;;;;;;;;;;;21.90;55.90;;;;;;484544;246;2125;-41
2022/06/10 05:27:27;;;;;;;;;;;22.00;55.90;;;;;;484126;246;1273;-41
2022/06/10 05:29:28;;;;;;;;;;;21.90;55.90;;;;;;484217;246;1325;-41
2022/06/10 05:31:29;;;;;;;;;;;21.90;56.00;;;;;;484021;246;1472;-41
2022/06/10 05:34:44;;;;;;;;;;;21.90;56.00;;;;;;483987;246;1269;-41
2022/06/10 05:35:33;;;;;;;;;;;21.90;56.00;;;;;;482883;246;1588;-41
2022/06/10 05:37:34;;;;;;;;;;;21.90;56.00;;;;;;484085;246;1175;-41
2022/06/10 05:39:36;;;;;;;;;;;21.90;56.00;;;;;;484197;246;1137;-41
2022/06/10 05:43:56;;;;;;;;;;;21.90;55.90;;;;;;484448;244;2124;-40
2022/06/10 05:45:58;;;;;;;;;;;21.90;56.00;;;;;;484053;246;1312;-41
2022/06/10 05:48:00;;;;;;;;;;;21.90;56.00;;;;;;484197;246;1219;-41
2022/06/10 05:50:00;;;;;;;;;;;21.90;56.00;;;;;;484381;246;2178;-41
2022/06/10 05:52:02;;;;;;;;;;;21.90;56.10;;;;;;484123;246;1284;-40
2022/06/10 05:54:03;;;;;;;;;;;21.90;56.00;;;;;;484127;246;1108;-41
2022/06/10 05:56:04;;;;;;;;;;;21.90;56.10;;;;;;484096;246;1306;-41
2022/06/10 05:58:06;;;;;;;;;;;21.90;56.00;;;;;;484332;246;1242;-40
2022/06/10 06:00:07;;;;;;;;;;;21.90;56.00;;;;;;484062;246;1228;-41
2022/06/10 06:02:08;;;;;;;;;;;21.90;56.10;;;;;;483956;246;1227;-41
2022/06/10 06:04:10;;;;;;;;;;;21.90;55.90;;;;;;483896;246;2187;-41
2022/06/10 06:06:12;;;;;;;;;;;21.90;56.00;;;;;;484128;246;1250;-40
2022/06/10 06:08:12;;;;;;;;;;;21.90;56.00;;;;;;484117;246;1851;-41
2022/06/10 06:10:14;;;;;;;;;;;21.90;56.00;;;;;;484117;246;1285;-41
2022/06/10 06:12:15;;;;;;;;;;;21.90;56.10;;;;;;483914;246;1230;-41
2022/06/10 06:14:18;;;;;;;;;;;21.90;56.10;;;;;;483884;246;1240;-41
2022/06/10 06:16:18;;;;;;;;;;;21.90;56.00;;;;;;483879;246;2123;-40
2022/06/10 06:18:20;;;;;;;;;;;21.90;55.90;;;;;;483777;246;1284;-41
2022/06/10 06:20:21;;;;;;;;;;;21.90;55.90;;;;;;483747;246;1236;-41
2022/06/10 06:22:23;;;;;;;;;;;21.90;55.90;;;;;;483870;246;1300;-41
2022/06/10 06:24:24;;;;;;;;;;;21.90;55.90;;;;;;483836;246;2140;-41
2022/06/10 06:26:26;;;;;;;;;;;21.90;55.90;;;;;;483800;246;1193;-41
2022/06/10 06:28:28;;;;;;;;;;;21.90;55.80;;;;;;483982;246;1346;-41
2022/06/10 06:30:30;;;;;;;;;;;21.90;55.80;;;;;;483711;246;1833;-41
2022/06/10 06:32:31;;;;;;;;;;;21.90;55.80;;;;;;483599;246;2083;-41
2022/06/10 06:34:32;;;;;;;;;;;21.90;55.80;;;;;;483717;246;1273;-41
2022/06/10 06:36:34;;;;;;;;;;;21.90;55.90;;;;;;483810;246;1160;-41
2022/06/10 06:38:35;;;;;;;;;;;21.90;55.80;;;;;;483731;246;1207;-40
2022/06/10 06:40:37;;;;;;;;;;;21.90;55.90;;;;;;483719;246;1294;-41
2022/06/10 06:42:38;;;;;;;;;;;21.90;55.80;;;;;;483724;246;1231;-41
2022/06/10 06:44:41;;;;;;;;;;;21.90;55.80;;;;;;483611;246;2192;-41
2022/06/10 06:46:42;;;;;;;;;;;21.90;55.70;;;;;;483520;246;1419;-41
2022/06/10 06:48:43;;;;;;;;;;;21.90;55.70;;;;;;483406;246;1254;-41
2022/06/10 06:50:45;;;;;;;;;;;21.90;55.70;;;;;;483405;246;1352;-41
2022/06/10 06:52:46;;;;;;;;;;;21.90;55.70;;;;;;483663;246;1255;-41
2022/06/10 06:54:47;;;;;;;;;;;21.90;55.80;;;;;;483436;246;1194;-41
2022/06/10 06:56:49;;;;;;;;;;;21.90;55.80;;;;;;483634;246;1180;-41
2022/06/10 06:58:50;;;;;;;;;;;21.90;55.80;;;;;;483689;246;1211;-41
2022/06/10 07:00:51;;;;;;;;;;;21.90;55.80;;;;;;483593;246;1186;-41
2022/06/10 07:02:53;;;;;;;;;;;21.90;55.70;;;;;;483478;246;1293;-41
2022/06/10 07:04:54;;;;;;;;;;;21.90;55.70;;;;;;483752;246;2128;-41
2022/06/10 07:06:55;;;;;;;;;;;21.90;55.70;;;;;;483691;246;1263;-41
2022/06/10 07:08:57;;;;;;;;;;;21.90;55.60;;;;;;483744;246;1254;-41
2022/06/10 07:10:59;;;;;;;;;;;22.00;55.70;;;;;;483560;246;1371;-41
2022/06/10 07:13:00;;;;;;;;;;;21.90;55.60;;;;;;483724;246;1471;-41
2022/06/10 07:15:01;;;;;;;;;;;21.90;55.60;;;;;;484174;246;1245;-41
2022/06/10 07:17:03;;;;;;;;;;;21.90;55.60;;;;;;484025;246;1116;-41
2022/06/10 07:19:04;;;;;;;;;;;21.90;55.60;;;;;;483447;246;1317;-40
2022/06/10 07:21:05;;;;;;;;;;;21.90;55.60;;;;;;483591;246;2083;-41
2022/06/10 07:23:07;;;;;;;;;;;21.90;55.60;;;;;;484303;245;1211;-41
2022/06/10 07:25:08;;;;;;;;;;;21.90;55.60;;;;;;484424;246;2195;-41
2022/06/10 07:27:10;;;;;;;;;;;21.90;55.60;;;;;;483740;246;1290;-40
2022/06/10 07:29:11;;;;;;;;;;;21.90;55.70;;;;;;483700;246;1217;-41
2022/06/10 07:31:12;;;;;;;;;;;21.90;55.70;;;;;;483576;246;1257;-41
2022/06/10 07:33:13;;;;;;;;;;;21.90;55.60;;;;;;483600;246;1182;-41
2022/06/10 07:35:15;;;;;;;;;;;21.90;55.70;;;;;;483488;246;1258;-41
2022/06/10 07:37:16;;;;;;;;;;;21.90;55.60;;;;;;483448;246;1485;-41
2022/06/10 07:39:17;;;;;;;;;;;21.90;55.60;;;;;;483428;246;1285;-41
2022/06/10 07:43:38;;;;;;;;;;;21.80;55.70;;;;;;483556;245;1172;-41
2022/06/10 07:45:39;;;;;;;;;;;21.80;55.80;;;;;;483682;246;2117;-41
2022/06/10 07:47:41;;;;;;;;;;;21.80;55.80;;;;;;483719;246;1284;-41
2022/06/10 07:49:42;;;;;;;;;;;21.80;55.60;;;;;;483652;246;1189;-40
2022/06/10 07:51:43;;;;;;;;;;;21.90;55.70;;;;;;483660;246;1426;-41
2022/06/10 07:53:45;;;;;;;;;;;21.90;55.60;;;;;;483586;246;1208;-41
2022/06/10 07:55:46;;;;;;;;;;;21.90;55.50;;;;;;483541;246;1182;-41
2022/06/10 07:57:47;;;;;;;;;;;21.90;55.50;;;;;;483559;246;1325;-41
2022/06/10 07:59:49;;;;;;;;;;;22.00;55.50;;;;;;483655;246;1273;-41
2022/06/10 08:01:50;;;;;;;;;;;21.90;55.50;;;;;;483667;246;1322;-41
2022/06/10 08:03:52;;;;;;;;;;;21.90;55.50;;;;;;483708;246;1223;-41
2022/06/10 08:05:53;;;;;;;;;;;21.90;55.50;;;;;;483646;246;2199;-41
2022/06/10 08:07:54;;;;;;;;;;;21.90;55.50;;;;;;484348;246;1159;-40
2022/06/10 08:09:56;;;;;;;;;;;21.90;55.50;;;;;;484005;246;983;-41
2022/06/10 08:11:57;;;;;;;;;;;21.90;55.50;;;;;;483792;246;1229;-41
2022/06/10 08:13:58;;;;;;;;;;;21.90;55.50;;;;;;484002;246;1116;-41
2022/06/10 08:16:00;;;;;;;;;;;21.90;55.40;;;;;;483882;246;853;-41
2022/06/10 08:18:01;;;;;;;;;;;21.90;55.50;;;;;;483611;246;1230;-41
2022/06/10 08:20:02;;;;;;;;;;;21.90;55.50;;;;;;483398;246;1183;-40
2022/06/10 08:24:23;;;;;;;;;;;21.90;55.60;;;;;;484371;245;835;-41
2022/06/10 08:26:25;;;;;;;;;;;21.80;55.70;;;;;;483608;246;2181;-41
2022/06/10 08:28:26;;;;;;;;;;;21.80;55.80;;;;;;483525;246;1068;-41
2022/06/10 08:30:27;;;;;;;;;;;21.90;55.60;;;;;;483602;246;1088;-40
2022/06/10 08:32:28;;;;;;;;;;;22.00;55.60;;;;;;483769;246;1102;-41
2022/06/10 08:34:30;;;;;;;;;;;22.00;55.50;;;;;;483635;246;1265;-41
2022/06/10 08:36:31;;;;;;;;;;;21.90;55.50;;;;;;483605;246;1085;-41
2022/06/10 08:38:32;;;;;;;;;;;22.00;55.50;;;;;;483548;246;1081;-41
2022/06/10 08:40:33;;;;;;;;;;;22.00;55.40;;;;;;483519;246;1271;-41
2022/06/10 08:42:35;;;;;;;;;;;22.00;55.40;;;;;;483330;246;1365;-41
2022/06/10 08:44:36;;;;;;;;;;;22.00;55.60;;;;;;483406;246;1242;-41
2022/06/10 08:46:37;;;;;;;;;;;22.00;55.50;;;;;;483402;246;1264;-41
2022/06/10 08:48:39;;;;;;;;;;;22.00;55.40;;;;;;483418;246;1125;-41
2022/06/10 08:50:40;;;;;;;;;;;22.00;55.40;;;;;;483496;246;1227;-41
2022/06/10 08:52:42;;;;;;;;;;;22.00;55.30;;;;;;483224;246;1268;-41
2022/06/10 08:54:43;;;;;;;;;;;22.10;55.40;;;;;;483359;246;1393;-40
2022/06/10 08:56:45;;;;;;;;;;;22.10;55.40;;;;;;483297;246;1171;-41
2022/06/10 08:58:46;;;;;;;;;;;22.10;55.40;;;;;;483397;246;1191;-41
2022/06/10 09:00:47;;;;;;;;;;;22.10;55.30;;;;;;483468;246;1238;-41
2022/06/10 09:02:48;;;;;;;;;;;22.00;55.40;;;;;;483857;246;1202;-41
2022/06/10 09:04:52;;;;;;;;;;;22.00;55.70;;;;;;483639;246;2199;-41
2022/06/10 09:06:52;;;;;;;;;;;21.90;55.90;;;;;;483505;246;2040;-41
2022/06/10 09:08:53;;;;;;;;;;;21.90;55.80;;;;;;483516;246;1227;-41
2022/06/10 09:10:55;;;;;;;;;;;21.90;55.90;;;;;;483389;246;1244;-41
2022/06/10 09:12:56;;;;;;;;;;;21.90;55.90;;;;;;484010;246;1299;-41
2022/06/10 09:14:58;;;;;;;;;;;21.90;56.00;;;;;;484196;246;1071;-41
2022/06/10 09:16:59;;;;;;;;;;;21.90;55.90;;;;;;483514;246;2321;-41
2022/06/10 09:19:00;;;;;;;;;;;21.90;55.90;;;;;;483594;246;1284;-41
2022/06/10 09:21:02;;;;;;;;;;;21.90;55.80;;;;;;483448;246;1176;-40
2022/06/10 09:23:03;;;;;;;;;;;22.00;55.90;;;;;;483603;246;1293;-41
2022/06/10 09:25:04;;;;;;;;;;;21.90;55.90;;;;;;484066;246;2183;-41
2022/06/10 09:27:06;;;;;;;;;;;21.90;55.90;;;;;;484314;246;1123;-41
2022/06/10 09:29:08;;;;;;;;;;;21.90;55.90;;;;;;483877;246;1082;-41
2022/06/10 09:31:09;;;;;;;;;;;21.90;55.90;;;;;;483875;246;2260;-41
2022/06/10 09:33:10;;;;;;;;;;;21.90;55.90;;;;;;483534;246;1333;-41
2022/06/10 09:35:12;;;;;;;;;;;22.00;55.70;;;;;;483457;246;1309;-41
2022/06/10 09:37:13;;;;;;;;;;;22.00;55.60;;;;;;483629;246;1086;-41
2022/06/10 09:40:35;;;;;;;;;;;22.10;55.60;;;;;;483991;246;1335;-41
2022/06/10 09:41:16;;;;;;;;;;;22.00;55.50;;;;;;482597;246;1870;-41
2022/06/10 09:43:17;;;;;;;;;;;22.10;55.50;;;;;;483819;246;1078;-41
2022/06/10 09:45:18;;;;;;;;;;;22.10;55.50;;;;;;483858;246;2200;-41
2022/06/10 09:47:20;;;;;;;;;;;22.10;55.40;;;;;;483555;246;1141;-41
2022/06/10 09:49:21;;;;;;;;;;;21.90;55.60;;;;;;483685;246;1050;-41
2022/06/10 09:51:22;;;;;;;;;;;21.90;55.60;;;;;;483551;246;1354;-41
2022/06/10 09:53:23;;;;;;;;;;;22.00;55.60;;;;;;483813;246;1234;-41
2022/06/10 09:55:26;;;;;;;;;;;22.00;55.40;;;;;;483682;246;1138;-41
2022/06/10 09:57:26;;;;;;;;;;;22.00;55.50;;;;;;483215;245;1541;-41
2022/06/10 09:59:28;;;;;;;;;;;22.00;55.50;;;;;;483381;246;1221;-41
2022/06/10 10:01:29;;;;;;;;;;;22.00;55.30;;;;;;483595;246;1252;-41
2022/06/10 10:03:31;;;;;;;;;;;22.10;55.40;;;;;;484408;246;1191;-41
2022/06/10 10:05:32;;;;;;;;;;;22.00;55.40;;;;;;484070;246;2207;-41
2022/06/10 10:07:33;;;;;;;;;;;22.00;55.50;;;;;;483988;246;1220;-41
2022/06/10 10:09:34;;;;;;;;;;;22.10;55.40;;;;;;483647;246;1058;-41
2022/06/10 10:11:35;;;;;;;;;;;22.00;55.30;;;;;;483729;246;1347;-41
2022/06/10 10:13:37;;;;;;;;;;;22.00;55.40;;;;;;483678;246;1272;-41
2022/06/10 10:15:38;;;;;;;;;;;22.00;55.40;;;;;;483706;246;1202;-41
2022/06/10 10:17:40;;;;;;;;;;;22.00;55.40;;;;;;484171;246;1233;-41
2022/06/10 10:19:41;;;;;;;;;;;22.00;55.40;;;;;;483692;246;1082;-41
2022/06/10 10:21:42;;;;;;;;;;;22.00;55.40;;;;;;483756;246;1334;-41
2022/06/10 10:23:44;;;;;;;;;;;22.00;55.30;;;;;;483756;246;1184;-41
2022/06/10 10:25:45;;;;;;;;;;;22.00;55.30;;;;;;483714;246;2183;-41
2022/06/10 10:27:47;;;;;;;;;;;22.10;55.20;;;;;;483810;246;1237;-41
2022/06/10 10:29:48;;;;;;;;;;;22.00;55.30;;;;;;483705;246;1234;-41
2022/06/10 10:31:49;;;;;;;;;;;22.00;55.20;;;;;;483532;246;1274;-41
2022/06/10 10:33:51;;;;;;;;;;;21.90;55.40;;;;;;485036;245;1134;-41
2022/06/10 10:35:52;;;;;;;;;;;21.90;54.10;;;;;;484754;245;1222;-41
2022/06/10 10:37:53;;;;;;;;;;;22.00;55.40;;;;;;483995;245;1705;-41
2022/06/10 10:39:55;;;;;;;;;;;22.00;55.40;;;;;;483954;246;1281;-41
2022/06/10 10:41:56;;;;;;;;;;;22.00;55.40;;;;;;483659;246;1384;-41
2022/06/10 10:43:58;;;;;;;;;;;21.90;55.40;;;;;;483620;246;1312;-41
2022/06/10 10:45:59;;;;;;;;;;;22.00;55.50;;;;;;483461;246;2176;-41
2022/06/10 10:48:01;;;;;;;;;;;22.00;55.50;;;;;;483504;246;1185;-41
2022/06/10 10:50:03;;;;;;;;;;;22.00;55.40;;;;;;483634;246;1121;-41
2022/06/10 10:52:03;;;;;;;;;;;22.00;55.50;;;;;;483306;246;1995;-41
2022/06/10 10:54:06;;;;;;;;;;;22.00;55.50;;;;;;483636;246;1093;-41
2022/06/10 10:56:06;;;;;;;;;;;22.00;55.30;;;;;;483404;246;1604;-41
2022/06/10 10:58:08;;;;;;;;;;;22.00;55.30;;;;;;483590;246;1155;-41
2022/06/10 11:00:09;;;;;;;;;;;22.00;55.30;;;;;;483568;246;1137;-40
2022/06/10 11:02:10;;;;;;;;;;;22.00;55.30;;;;;;483320;246;1280;-41
2022/06/10 11:04:12;;;;;;;;;;;22.00;55.20;;;;;;483414;246;1304;-41
2022/06/10 11:06:13;;;;;;;;;;;22.00;55.30;;;;;;483349;246;2200;-40
2022/06/10 11:08:14;;;;;;;;;;;22.00;55.30;;;;;;483695;246;1170;-41
2022/06/10 11:10:16;;;;;;;;;;;21.90;55.60;;;;;;483565;246;1244;-41
2022/06/10 11:12:17;;;;;;;;;;;21.90;55.60;;;;;;483781;246;1171;-41
2022/06/10 11:14:18;;;;;;;;;;;22.00;55.50;;;;;;483649;246;1181;-41
2022/06/10 11:16:20;;;;;;;;;;;22.00;55.60;;;;;;483734;246;1258;-41
2022/06/10 11:18:21;;;;;;;;;;;21.90;55.70;;;;;;483942;246;1241;-41
2022/06/10 11:20:22;;;;;;;;;;;21.90;55.70;;;;;;483628;246;1252;-40
2022/06/10 11:22:24;;;;;;;;;;;21.90;55.80;;;;;;483728;246;1270;-41
2022/06/10 11:24:25;;;;;;;;;;;21.90;55.90;;;;;;483536;246;1289;-41
2022/06/10 11:26:26;;;;;;;;;;;21.90;55.80;;;;;;483574;246;2121;-41
2022/06/10 11:28:28;;;;;;;;;;;21.80;55.90;;;;;;484475;246;1288;-40
2022/06/10 11:30:29;;;;;;;;;;;21.80;56.70;;;;;;483943;246;1340;-41
2022/06/10 11:32:30;;;;;;;;;;;21.90;55.80;;;;;;484123;246;1357;-41
2022/06/10 11:34:32;;;;;;;;;;;21.90;55.60;;;;;;483887;246;1265;-41
2022/06/10 11:36:33;;;;;;;;;;;21.90;55.60;;;;;;483582;246;1254;-41
2022/06/10 11:38:34;;;;;;;;;;;21.90;55.60;;;;;;483752;246;1103;-41
2022/06/10 11:40:36;;;;;;;;;;;21.90;55.60;;;;;;484271;246;1298;-41
2022/06/10 11:42:37;;;;;;;;;;;22.00;55.50;;;;;;483949;246;1185;-41
2022/06/10 11:44:38;;;;;;;;;;;22.00;55.50;;;;;;483968;246;1126;-41
2022/06/10 11:46:40;;;;;;;;;;;22.00;55.60;;;;;;483719;246;2195;-41
2022/06/10 11:48:41;;;;;;;;;;;22.00;55.60;;;;;;483755;246;1314;-41
2022/06/10 11:50:42;;;;;;;;;;;22.00;55.60;;;;;;483704;246;1288;-40
2022/06/10 11:52:44;;;;;;;;;;;22.00;55.60;;;;;;483929;246;1025;-40
2022/06/10 11:54:45;;;;;;;;;;;22.00;55.60;;;;;;483659;246;1384;-40
2022/06/10 12:01:25;;;;;;;;;;;22.00;55.80;;;;;;483637;245;1194;-40
2022/06/10 12:03:26;;;;;;;;;;;22.00;55.60;;;;;;483209;246;1183;-40
2022/06/10 12:05:27;;;;;;;;;;;22.00;55.50;;;;;;483320;246;1267;-39
2022/06/10 12:07:29;;;;;;;;;;;22.00;55.50;;;;;;483558;246;2191;-39
2022/06/10 12:09:30;;;;;;;;;;;22.00;55.60;;;;;;483699;246;1357;-40
2022/06/10 12:11:31;;;;;;;;;;;22.00;55.80;;;;;;483724;246;1235;-40